sensor_id;sensor_type;location;lat;lon;timestamp;P1;durP1;ratioP1;P2;durP2;ratioP2
51048;SDS011;37084;55.228;36.450;2023-07-20T00:01:39;4.60;;;1.60;;
51048;SDS011;37084;55.228;36.450;2023-07-20T00:04:47;3.70;;;1.80;;
51048;SDS011;37084;55.228;36.450;2023-07-20T00:07:49;4.75;;;1.73;;
51048;SDS011;37084;55.228;36.450;2023-07-20T00:10:53;4.07;;;1.60;;
51048;SDS011;37084;55.228;36.450;2023-07-20T00:13:57;5.45;;;2.90;;
51048;SDS011;37084;55.228;36.450;2023-07-20T00:17:07;2.50;;;1.40;;
51048;SDS011;37084;55.228;36.450;2023-07-20T00:20:11;2.33;;;1.65;;
51048;SDS011;37084;55.228;36.450;2023-07-20T00:23:21;3.80;;;1.33;;
51048;SDS011;37084;55.228;36.450;2023-07-20T00:26:25;2.72;;;1.83;;
51048;SDS011;37084;55.228;36.450;2023-07-20T00:29:27;4.88;;;1.83;;
51048;SDS011;37084;55.228;36.450;2023-07-20T00:32:30;4.55;;;1.90;;
51048;SDS011;37084;55.228;36.450;2023-07-20T00:35:36;4.50;;;1.50;;
51048;SDS011;37084;55.228;36.450;2023-07-20T00:38:44;3.72;;;2.00;;
51048;SDS011;37084;55.228;36.450;2023-07-20T00:41:51;3.33;;;1.60;;
51048;SDS011;37084;55.228;36.450;2023-07-20T00:44:54;2.65;;;1.70;;
51048;SDS011;37084;55.228;36.450;2023-07-20T00:47:58;1.80;;;1.50;;
51048;SDS011;37084;55.228;36.450;2023-07-20T00:51:02;3.53;;;1.73;;
51048;SDS011;37084;55.228;36.450;2023-07-20T00:54:06;2.72;;;1.65;;
51048;SDS011;37084;55.228;36.450;2023-07-20T00:57:14;2.53;;;1.52;;
51048;SDS011;37084;55.228;36.450;2023-07-20T01:00:16;1.88;;;1.42;;
51048;SDS011;37084;55.228;36.450;2023-07-20T01:03:20;3.88;;;1.40;;
51048;SDS011;37084;55.228;36.450;2023-07-20T01:09:47;3.85;;;1.35;;
51048;SDS011;37084;55.228;36.450;2023-07-20T01:12:55;3.72;;;1.40;;
51048;SDS011;37084;55.228;36.450;2023-07-20T01:15:57;5.25;;;1.65;;
51048;SDS011;37084;55.228;36.450;2023-07-20T01:19:06;3.95;;;2.30;;
51048;SDS011;37084;55.228;36.450;2023-07-20T01:32:57;2.95;;;1.48;;
51048;SDS011;37084;55.228;36.450;2023-07-20T01:36:00;3.45;;;1.73;;
51048;SDS011;37084;55.228;36.450;2023-07-20T01:42:33;2.72;;;1.50;;
51048;SDS011;37084;55.228;36.450;2023-07-20T01:52:10;2.78;;;1.65;;
51048;SDS011;37084;55.228;36.450;2023-07-20T01:55:11;4.25;;;1.70;;
51048;SDS011;37084;55.228;36.450;2023-07-20T01:58:17;4.78;;;1.88;;
51048;SDS011;37084;55.228;36.450;2023-07-20T02:01:21;4.47;;;1.77;;
51048;SDS011;37084;55.228;36.450;2023-07-20T02:04:25;2.38;;;1.45;;
51048;SDS011;37084;55.228;36.450;2023-07-20T02:11:20;2.42;;;1.50;;
51048;SDS011;37084;55.228;36.450;2023-07-20T02:14:26;2.35;;;1.65;;
51048;SDS011;37084;55.228;36.450;2023-07-20T02:17:32;3.83;;;1.42;;
51048;SDS011;37084;55.228;36.450;2023-07-20T02:20:54;2.90;;;2.22;;
51048;SDS011;37084;55.228;36.450;2023-07-20T02:23:56;2.63;;;1.55;;
51048;SDS011;37084;55.228;36.450;2023-07-20T02:26:58;3.80;;;1.75;;
51048;SDS011;37084;55.228;36.450;2023-07-20T02:30:05;3.17;;;1.10;;
51048;SDS011;37084;55.228;36.450;2023-07-20T02:33:11;2.35;;;1.17;;
51048;SDS011;37084;55.228;36.450;2023-07-20T02:36:13;2.80;;;1.30;;
51048;SDS011;37084;55.228;36.450;2023-07-20T02:42:23;1.42;;;1.10;;
51048;SDS011;37084;55.228;36.450;2023-07-20T02:45:28;1.90;;;1.75;;
51048;SDS011;37084;55.228;36.450;2023-07-20T02:48:32;4.72;;;1.27;;
51048;SDS011;37084;55.228;36.450;2023-07-20T02:51:35;3.03;;;1.20;;
51048;SDS011;37084;55.228;36.450;2023-07-20T02:54:37;2.95;;;1.23;;
51048;SDS011;37084;55.228;36.450;2023-07-20T02:57:47;2.80;;;1.95;;
51048;SDS011;37084;55.228;36.450;2023-07-20T03:00:52;2.60;;;1.33;;
51048;SDS011;37084;55.228;36.450;2023-07-20T03:03:55;2.60;;;1.40;;
51048;SDS011;37084;55.228;36.450;2023-07-20T03:07:04;2.72;;;1.55;;
51048;SDS011;37084;55.228;36.450;2023-07-20T03:13:47;2.42;;;1.20;;
51048;SDS011;37084;55.228;36.450;2023-07-20T03:20:12;1.27;;;1.00;;
51048;SDS011;37084;55.228;36.450;2023-07-20T03:23:19;1.33;;;1.10;;
51048;SDS011;37084;55.228;36.450;2023-07-20T03:26:25;2.47;;;0.93;;
51048;SDS011;37084;55.228;36.450;2023-07-20T03:33:34;2.90;;;1.10;;
51048;SDS011;37084;55.228;36.450;2023-07-20T03:36:42;4.38;;;1.48;;
51048;SDS011;37084;55.228;36.450;2023-07-20T03:44:36;1.52;;;1.23;;
51048;SDS011;37084;55.228;36.450;2023-07-20T03:47:45;2.20;;;0.95;;
51048;SDS011;37084;55.228;36.450;2023-07-20T03:55:18;1.42;;;0.98;;
51048;SDS011;37084;55.228;36.450;2023-07-20T03:58:27;4.78;;;1.02;;
51048;SDS011;37084;55.228;36.450;2023-07-20T04:01:38;2.22;;;1.08;;
51048;SDS011;37084;55.228;36.450;2023-07-20T04:06:00;1.20;;;1.08;;
51048;SDS011;37084;55.228;36.450;2023-07-20T04:09:28;3.65;;;1.00;;
51048;SDS011;37084;55.228;36.450;2023-07-20T04:12:35;1.63;;;1.20;;
51048;SDS011;37084;55.228;36.450;2023-07-20T04:16:04;2.92;;;1.00;;
51048;SDS011;37084;55.228;36.450;2023-07-20T04:24:09;1.40;;;1.02;;
51048;SDS011;37084;55.228;36.450;2023-07-20T04:27:55;1.80;;;0.90;;
51048;SDS011;37084;55.228;36.450;2023-07-20T04:31:17;1.63;;;1.02;;
51048;SDS011;37084;55.228;36.450;2023-07-20T04:35:07;2.85;;;1.35;;
51048;SDS011;37084;55.228;36.450;2023-07-20T04:38:15;3.17;;;1.02;;
51048;SDS011;37084;55.228;36.450;2023-07-20T04:45:10;1.02;;;0.90;;
51048;SDS011;37084;55.228;36.450;2023-07-20T04:48:25;1.63;;;1.35;;
51048;SDS011;37084;55.228;36.450;2023-07-20T04:51:31;1.33;;;1.00;;
51048;SDS011;37084;55.228;36.450;2023-07-20T04:54:44;1.65;;;0.80;;
51048;SDS011;37084;55.228;36.450;2023-07-20T04:57:48;1.70;;;0.93;;
51048;SDS011;37084;55.228;36.450;2023-07-20T05:04:52;1.17;;;0.90;;
51048;SDS011;37084;55.228;36.450;2023-07-20T05:08:13;1.33;;;0.90;;
51048;SDS011;37084;55.228;36.450;2023-07-20T05:11:21;2.10;;;0.82;;
51048;SDS011;37084;55.228;36.450;2023-07-20T05:14:36;1.38;;;1.10;;
51048;SDS011;37084;55.228;36.450;2023-07-20T05:18:02;1.80;;;1.08;;
51048;SDS011;37084;55.228;36.450;2023-07-20T05:21:23;2.70;;;1.08;;
51048;SDS011;37084;55.228;36.450;2023-07-20T05:24:53;1.88;;;1.23;;
51048;SDS011;37084;55.228;36.450;2023-07-20T05:28:16;3.50;;;1.73;;
51048;SDS011;37084;55.228;36.450;2023-07-20T05:31:32;2.92;;;1.27;;
51048;SDS011;37084;55.228;36.450;2023-07-20T05:43:16;2.03;;;0.90;;
51048;SDS011;37084;55.228;36.450;2023-07-20T05:46:53;2.30;;;1.25;;
51048;SDS011;37084;55.228;36.450;2023-07-20T05:58:36;2.25;;;1.00;;
51048;SDS011;37084;55.228;36.450;2023-07-20T06:02:26;1.33;;;0.90;;
51048;SDS011;37084;55.228;36.450;2023-07-20T06:05:58;1.60;;;0.82;;
51048;SDS011;37084;55.228;36.450;2023-07-20T06:10:49;2.38;;;0.70;;
51048;SDS011;37084;55.228;36.450;2023-07-20T06:55:12;1.50;;;1.10;;
51048;SDS011;37084;55.228;36.450;2023-07-20T06:59:27;1.33;;;0.90;;
51048;SDS011;37084;55.228;36.450;2023-07-20T07:13:53;3.28;;;1.23;;
51048;SDS011;37084;55.228;36.450;2023-07-20T08:17:53;2.88;;;1.17;;
51048;SDS011;37084;55.228;36.450;2023-07-20T08:24:55;1.30;;;0.85;;
51048;SDS011;37084;55.228;36.450;2023-07-20T08:36:33;2.78;;;1.48;;
51048;SDS011;37084;55.228;36.450;2023-07-20T08:44:32;2.85;;;1.00;;
51048;SDS011;37084;55.228;36.450;2023-07-20T08:47:40;4.60;;;1.50;;
51048;SDS011;37084;55.228;36.450;2023-07-20T08:56:16;3.00;;;0.95;;
51048;SDS011;37084;55.228;36.450;2023-07-20T08:59:23;2.20;;;1.15;;
51048;SDS011;37084;55.228;36.450;2023-07-20T09:06:58;1.75;;;0.95;;
51048;SDS011;37084;55.228;36.450;2023-07-20T09:10:10;2.25;;;1.27;;
51048;SDS011;37084;55.228;36.450;2023-07-20T09:13:44;2.70;;;1.10;;
51048;SDS011;37084;55.228;36.450;2023-07-20T09:16:52;2.85;;;1.00;;
51048;SDS011;37084;55.228;36.450;2023-07-20T09:19:55;1.42;;;1.10;;
51048;SDS011;37084;55.228;36.450;2023-07-20T09:23:04;1.17;;;0.93;;
51048;SDS011;37084;55.228;36.450;2023-07-20T09:26:19;1.20;;;1.02;;
51048;SDS011;37084;55.228;36.450;2023-07-20T09:29:20;2.63;;;1.05;;
51048;SDS011;37084;55.228;36.450;2023-07-20T09:32:23;1.75;;;1.17;;
51048;SDS011;37084;55.228;36.450;2023-07-20T09:35:24;1.17;;;0.93;;
51048;SDS011;37084;55.228;36.450;2023-07-20T09:38:26;3.28;;;1.45;;
51048;SDS011;37084;55.228;36.450;2023-07-20T09:41:28;2.95;;;1.00;;
51048;SDS011;37084;55.228;36.450;2023-07-20T09:44:30;2.05;;;1.27;;
51048;SDS011;37084;55.228;36.450;2023-07-20T09:47:31;2.97;;;1.30;;
51048;SDS011;37084;55.228;36.450;2023-07-20T09:51:11;2.42;;;1.42;;
51048;SDS011;37084;55.228;36.450;2023-07-20T09:54:09;3.88;;;1.38;;
51048;SDS011;37084;55.228;36.450;2023-07-20T09:57:12;2.22;;;0.93;;
51048;SDS011;37084;55.228;36.450;2023-07-20T10:03:20;1.58;;;0.93;;
51048;SDS011;37084;55.228;36.450;2023-07-20T10:06:25;2.88;;;0.90;;
51048;SDS011;37084;55.228;36.450;2023-07-20T10:09:28;2.13;;;0.82;;
51048;SDS011;37084;55.228;36.450;2023-07-20T10:12:34;2.53;;;0.90;;
51048;SDS011;37084;55.228;36.450;2023-07-20T10:15:36;1.73;;;1.35;;
51048;SDS011;37084;55.228;36.450;2023-07-20T10:22:13;3.38;;;0.85;;
51048;SDS011;37084;55.228;36.450;2023-07-20T10:25:17;1.45;;;0.88;;
51048;SDS011;37084;55.228;36.450;2023-07-20T10:28:20;1.33;;;0.80;;
51048;SDS011;37084;55.228;36.450;2023-07-20T10:31:24;1.25;;;1.05;;
51048;SDS011;37084;55.228;36.450;2023-07-20T10:34:27;1.75;;;0.70;;
51048;SDS011;37084;55.228;36.450;2023-07-20T10:40:54;1.17;;;0.80;;
51048;SDS011;37084;55.228;36.450;2023-07-20T10:44:05;2.78;;;0.80;;
51048;SDS011;37084;55.228;36.450;2023-07-20T10:47:09;1.60;;;0.85;;
51048;SDS011;37084;55.228;36.450;2023-07-20T10:50:13;2.85;;;0.80;;
51048;SDS011;37084;55.228;36.450;2023-07-20T10:56:36;1.33;;;1.15;;
51048;SDS011;37084;55.228;36.450;2023-07-20T10:59:37;2.40;;;1.10;;
51048;SDS011;37084;55.228;36.450;2023-07-20T11:02:45;1.58;;;0.60;;
51048;SDS011;37084;55.228;36.450;2023-07-20T11:05:47;1.40;;;0.77;;
51048;SDS011;37084;55.228;36.450;2023-07-20T11:08:48;3.47;;;0.80;;
51048;SDS011;37084;55.228;36.450;2023-07-20T11:12:08;2.10;;;1.10;;
51048;SDS011;37084;55.228;36.450;2023-07-20T11:15:11;1.15;;;0.80;;
51048;SDS011;37084;55.228;36.450;2023-07-20T11:18:13;1.40;;;0.65;;
51048;SDS011;37084;55.228;36.450;2023-07-20T11:21:15;2.78;;;0.88;;
51048;SDS011;37084;55.228;36.450;2023-07-20T11:24:16;1.67;;;0.90;;
51048;SDS011;37084;55.228;36.450;2023-07-20T11:27:18;1.95;;;0.77;;
51048;SDS011;37084;55.228;36.450;2023-07-20T11:30:23;1.58;;;0.85;;
51048;SDS011;37084;55.228;36.450;2023-07-20T11:33:26;1.67;;;0.70;;
51048;SDS011;37084;55.228;36.450;2023-07-20T11:36:27;2.67;;;0.63;;
51048;SDS011;37084;55.228;36.450;2023-07-20T11:39:32;2.63;;;0.68;;
51048;SDS011;37084;55.228;36.450;2023-07-20T11:42:34;1.52;;;0.60;;
51048;SDS011;37084;55.228;36.450;2023-07-20T11:45:37;2.35;;;0.70;;
51048;SDS011;37084;55.228;36.450;2023-07-20T11:48:39;1.50;;;0.80;;
51048;SDS011;37084;55.228;36.450;2023-07-20T11:51:40;1.17;;;0.80;;
51048;SDS011;37084;55.228;36.450;2023-07-20T11:54:42;3.47;;;0.70;;
51048;SDS011;37084;55.228;36.450;2023-07-20T11:58:02;1.45;;;0.80;;
51048;SDS011;37084;55.228;36.450;2023-07-20T12:01:04;3.75;;;0.82;;
51048;SDS011;37084;55.228;36.450;2023-07-20T12:04:06;2.17;;;0.90;;
51048;SDS011;37084;55.228;36.450;2023-07-20T12:07:09;1.73;;;0.75;;
51048;SDS011;37084;55.228;36.450;2023-07-20T12:10:11;2.17;;;0.60;;
51048;SDS011;37084;55.228;36.450;2023-07-20T12:13:13;1.98;;;0.60;;
51048;SDS011;37084;55.228;36.450;2023-07-20T12:16:16;2.63;;;0.68;;
51048;SDS011;37084;55.228;36.450;2023-07-20T12:19:18;1.70;;;0.70;;
51048;SDS011;37084;55.228;36.450;2023-07-20T12:22:43;1.73;;;0.70;;
51048;SDS011;37084;55.228;36.450;2023-07-20T12:25:47;1.73;;;0.80;;
51048;SDS011;37084;55.228;36.450;2023-07-20T12:28:49;2.25;;;0.80;;
51048;SDS011;37084;55.228;36.450;2023-07-20T12:31:50;1.67;;;1.13;;
51048;SDS011;37084;55.228;36.450;2023-07-20T12:34:53;0.85;;;0.60;;
51048;SDS011;37084;55.228;36.450;2023-07-20T12:37:54;1.25;;;0.68;;
51048;SDS011;37084;55.228;36.450;2023-07-20T12:40:56;1.55;;;0.80;;
51048;SDS011;37084;55.228;36.450;2023-07-20T12:43:59;1.25;;;0.73;;
51048;SDS011;37084;55.228;36.450;2023-07-20T12:47:01;1.90;;;0.80;;
51048;SDS011;37084;55.228;36.450;2023-07-20T12:50:03;2.05;;;0.80;;
51048;SDS011;37084;55.228;36.450;2023-07-20T12:56:12;1.45;;;0.77;;
51048;SDS011;37084;55.228;36.450;2023-07-20T12:59:13;1.88;;;1.00;;
51048;SDS011;37084;55.228;36.450;2023-07-20T13:02:15;2.95;;;1.50;;
51048;SDS011;37084;55.228;36.450;2023-07-20T13:05:16;1.77;;;0.90;;
51048;SDS011;37084;55.228;36.450;2023-07-20T13:08:17;0.75;;;0.65;;
51048;SDS011;37084;55.228;36.450;2023-07-20T13:11:20;2.55;;;0.80;;
51048;SDS011;37084;55.228;36.450;2023-07-20T13:14:27;1.65;;;0.70;;
51048;SDS011;37084;55.228;36.450;2023-07-20T13:17:29;2.28;;;0.70;;
51048;SDS011;37084;55.228;36.450;2023-07-20T13:20:32;1.33;;;0.75;;
51048;SDS011;37084;55.228;36.450;2023-07-20T13:23:36;4.70;;;1.10;;
51048;SDS011;37084;55.228;36.450;2023-07-20T13:26:39;1.85;;;0.90;;
51048;SDS011;37084;55.228;36.450;2023-07-20T13:29:45;2.10;;;1.13;;
51048;SDS011;37084;55.228;36.450;2023-07-20T13:32:47;4.38;;;0.77;;
51048;SDS011;37084;55.228;36.450;2023-07-20T13:35:49;1.90;;;0.75;;
51048;SDS011;37084;55.228;36.450;2023-07-20T13:38:50;2.42;;;0.68;;
51048;SDS011;37084;55.228;36.450;2023-07-20T13:41:53;1.40;;;0.73;;
51048;SDS011;37084;55.228;36.450;2023-07-20T13:44:58;1.77;;;0.70;;
51048;SDS011;37084;55.228;36.450;2023-07-20T13:48:01;3.35;;;0.90;;
51048;SDS011;37084;55.228;36.450;2023-07-20T13:51:03;1.58;;;0.73;;
51048;SDS011;37084;55.228;36.450;2023-07-20T13:54:06;2.03;;;0.73;;
51048;SDS011;37084;55.228;36.450;2023-07-20T13:57:07;1.65;;;0.80;;
51048;SDS011;37084;55.228;36.450;2023-07-20T14:00:09;2.20;;;0.70;;
51048;SDS011;37084;55.228;36.450;2023-07-20T14:03:15;1.75;;;1.00;;
51048;SDS011;37084;55.228;36.450;2023-07-20T14:06:18;1.80;;;1.20;;
51048;SDS011;37084;55.228;36.450;2023-07-20T14:09:19;2.05;;;0.85;;
51048;SDS011;37084;55.228;36.450;2023-07-20T14:12:22;2.58;;;0.98;;
51048;SDS011;37084;55.228;36.450;2023-07-20T14:15:23;1.98;;;0.90;;
51048;SDS011;37084;55.228;36.450;2023-07-20T14:18:25;2.80;;;0.70;;
51048;SDS011;37084;55.228;36.450;2023-07-20T14:21:28;1.10;;;0.73;;
51048;SDS011;37084;55.228;36.450;2023-07-20T14:24:33;3.20;;;0.90;;
51048;SDS011;37084;55.228;36.450;2023-07-20T14:27:35;1.13;;;0.75;;
51048;SDS011;37084;55.228;36.450;2023-07-20T14:30:36;1.90;;;0.75;;
51048;SDS011;37084;55.228;36.450;2023-07-20T14:33:39;1.95;;;1.20;;
51048;SDS011;37084;55.228;36.450;2023-07-20T14:36:41;1.63;;;0.77;;
51048;SDS011;37084;55.228;36.450;2023-07-20T14:39:42;1.23;;;0.80;;
51048;SDS011;37084;55.228;36.450;2023-07-20T14:42:47;1.65;;;0.80;;
51048;SDS011;37084;55.228;36.450;2023-07-20T14:45:48;2.35;;;0.70;;
51048;SDS011;37084;55.228;36.450;2023-07-20T14:48:50;4.10;;;1.08;;
51048;SDS011;37084;55.228;36.450;2023-07-20T14:51:52;1.77;;;0.70;;
51048;SDS011;37084;55.228;36.450;2023-07-20T14:54:53;1.75;;;0.82;;
51048;SDS011;37084;55.228;36.450;2023-07-20T14:57:55;4.32;;;1.02;;
51048;SDS011;37084;55.228;36.450;2023-07-20T15:00:58;1.50;;;0.88;;
51048;SDS011;37084;55.228;36.450;2023-07-20T15:03:59;2.45;;;1.45;;
51048;SDS011;37084;55.228;36.450;2023-07-20T15:07:01;1.00;;;0.88;;
51048;SDS011;37084;55.228;36.450;2023-07-20T15:10:03;3.42;;;0.90;;
51048;SDS011;37084;55.228;36.450;2023-07-20T15:16:33;4.00;;;1.00;;
51048;SDS011;37084;55.228;36.450;2023-07-20T15:19:39;2.53;;;1.05;;
51048;SDS011;37084;55.228;36.450;2023-07-20T15:26:09;2.03;;;0.93;;
51048;SDS011;37084;55.228;36.450;2023-07-20T15:29:11;2.03;;;1.00;;
51048;SDS011;37084;55.228;36.450;2023-07-20T15:32:14;3.95;;;1.02;;
51048;SDS011;37084;55.228;36.450;2023-07-20T15:35:19;2.97;;;1.00;;
51048;SDS011;37084;55.228;36.450;2023-07-20T15:38:23;1.45;;;0.70;;
51048;SDS011;37084;55.228;36.450;2023-07-20T15:41:24;2.25;;;0.80;;
51048;SDS011;37084;55.228;36.450;2023-07-20T15:44:27;2.95;;;0.90;;
51048;SDS011;37084;55.228;36.450;2023-07-20T15:47:30;1.85;;;1.00;;
51048;SDS011;37084;55.228;36.450;2023-07-20T15:50:32;2.75;;;0.82;;
51048;SDS011;37084;55.228;36.450;2023-07-20T15:53:35;3.10;;;1.00;;
51048;SDS011;37084;55.228;36.450;2023-07-20T15:56:38;2.45;;;1.05;;
51048;SDS011;37084;55.228;36.450;2023-07-20T15:59:42;2.30;;;0.75;;
51048;SDS011;37084;55.228;36.450;2023-07-20T16:02:44;3.25;;;0.82;;
51048;SDS011;37084;55.228;36.450;2023-07-20T16:05:46;1.98;;;0.80;;
51048;SDS011;37084;55.228;36.450;2023-07-20T16:08:47;2.15;;;0.90;;
51048;SDS011;37084;55.228;36.450;2023-07-20T16:11:50;2.03;;;0.85;;
51048;SDS011;37084;55.228;36.450;2023-07-20T16:14:52;1.70;;;1.05;;
51048;SDS011;37084;55.228;36.450;2023-07-20T16:17:58;1.98;;;0.90;;
51048;SDS011;37084;55.228;36.450;2023-07-20T16:21:01;2.22;;;1.00;;
51048;SDS011;37084;55.228;36.450;2023-07-20T16:24:03;2.10;;;0.80;;
51048;SDS011;37084;55.228;36.450;2023-07-20T16:27:05;3.40;;;1.35;;
51048;SDS011;37084;55.228;36.450;2023-07-20T16:30:07;2.13;;;1.10;;
51048;SDS011;37084;55.228;36.450;2023-07-20T16:33:08;3.42;;;1.00;;
51048;SDS011;37084;55.228;36.450;2023-07-20T16:36:10;2.63;;;1.15;;
51048;SDS011;37084;55.228;36.450;2023-07-20T16:39:12;4.07;;;1.20;;
51048;SDS011;37084;55.228;36.450;2023-07-20T16:42:15;1.67;;;0.82;;
51048;SDS011;37084;55.228;36.450;2023-07-20T16:45:16;1.77;;;0.90;;
51048;SDS011;37084;55.228;36.450;2023-07-20T16:48:18;5.03;;;0.95;;
51048;SDS011;37084;55.228;36.450;2023-07-20T16:51:22;4.25;;;0.90;;
51048;SDS011;37084;55.228;36.450;2023-07-20T16:54:23;2.38;;;0.90;;
51048;SDS011;37084;55.228;36.450;2023-07-20T16:57:25;2.13;;;0.98;;
51048;SDS011;37084;55.228;36.450;2023-07-20T17:00:28;1.73;;;0.90;;
51048;SDS011;37084;55.228;36.450;2023-07-20T17:03:39;2.55;;;1.15;;
51048;SDS011;37084;55.228;36.450;2023-07-20T17:06:41;3.50;;;0.90;;
51048;SDS011;37084;55.228;36.450;2023-07-20T17:09:47;5.22;;;1.10;;
51048;SDS011;37084;55.228;36.450;2023-07-20T17:12:52;3.63;;;1.25;;
51048;SDS011;37084;55.228;36.450;2023-07-20T17:15:54;1.73;;;0.90;;
51048;SDS011;37084;55.228;36.450;2023-07-20T17:18:55;3.17;;;1.05;;
51048;SDS011;37084;55.228;36.450;2023-07-20T17:21:58;2.65;;;0.90;;
51048;SDS011;37084;55.228;36.450;2023-07-20T17:25:03;4.25;;;0.90;;
51048;SDS011;37084;55.228;36.450;2023-07-20T17:28:07;3.97;;;1.10;;
51048;SDS011;37084;55.228;36.450;2023-07-20T17:31:10;3.30;;;1.05;;
51048;SDS011;37084;55.228;36.450;2023-07-20T17:34:12;2.42;;;1.25;;
51048;SDS011;37084;55.228;36.450;2023-07-20T17:37:13;2.10;;;1.17;;
51048;SDS011;37084;55.228;36.450;2023-07-20T17:40:17;3.25;;;1.25;;
51048;SDS011;37084;55.228;36.450;2023-07-20T17:43:20;2.47;;;0.95;;
51048;SDS011;37084;55.228;36.450;2023-07-20T17:46:22;2.20;;;1.13;;
51048;SDS011;37084;55.228;36.450;2023-07-20T17:49:24;3.72;;;0.93;;
51048;SDS011;37084;55.228;36.450;2023-07-20T17:52:28;3.20;;;1.20;;
51048;SDS011;37084;55.228;36.450;2023-07-20T17:55:29;4.00;;;1.58;;
51048;SDS011;37084;55.228;36.450;2023-07-20T17:58:35;2.75;;;1.30;;
51048;SDS011;37084;55.228;36.450;2023-07-20T18:01:39;2.97;;;1.42;;
51048;SDS011;37084;55.228;36.450;2023-07-20T18:04:43;2.33;;;1.25;;
51048;SDS011;37084;55.228;36.450;2023-07-20T18:07:46;4.50;;;1.50;;
51048;SDS011;37084;55.228;36.450;2023-07-20T18:10:52;2.75;;;1.13;;
51048;SDS011;37084;55.228;36.450;2023-07-20T18:13:53;4.22;;;1.60;;
51048;SDS011;37084;55.228;36.450;2023-07-20T18:17:02;3.78;;;1.70;;
51048;SDS011;37084;55.228;36.450;2023-07-20T18:20:04;3.35;;;1.80;;
51048;SDS011;37084;55.228;36.450;2023-07-20T18:23:10;5.85;;;1.77;;
51048;SDS011;37084;55.228;36.450;2023-07-20T18:26:15;3.40;;;1.48;;
51048;SDS011;37084;55.228;36.450;2023-07-20T18:29:17;3.03;;;1.40;;
51048;SDS011;37084;55.228;36.450;2023-07-20T18:32:21;2.35;;;1.33;;
51048;SDS011;37084;55.228;36.450;2023-07-20T18:35:22;2.70;;;1.50;;
51048;SDS011;37084;55.228;36.450;2023-07-20T18:38:23;5.32;;;1.48;;
51048;SDS011;37084;55.228;36.450;2023-07-20T18:41:27;4.88;;;1.55;;
51048;SDS011;37084;55.228;36.450;2023-07-20T18:44:31;4.65;;;1.85;;
51048;SDS011;37084;55.228;36.450;2023-07-20T18:47:35;3.45;;;1.73;;
51048;SDS011;37084;55.228;36.450;2023-07-20T18:50:37;4.57;;;1.80;;
51048;SDS011;37084;55.228;36.450;2023-07-20T18:53:40;3.10;;;1.60;;
51048;SDS011;37084;55.228;36.450;2023-07-20T18:56:43;5.68;;;1.92;;
51048;SDS011;37084;55.228;36.450;2023-07-20T18:59:49;4.32;;;2.40;;
51048;SDS011;37084;55.228;36.450;2023-07-20T19:02:53;6.38;;;3.60;;
51048;SDS011;37084;55.228;36.450;2023-07-20T19:06:02;6.05;;;2.88;;
51048;SDS011;37084;55.228;36.450;2023-07-20T19:09:09;4.53;;;2.45;;
51048;SDS011;37084;55.228;36.450;2023-07-20T19:12:14;7.35;;;2.65;;
51048;SDS011;37084;55.228;36.450;2023-07-20T19:15:16;3.88;;;2.00;;
51048;SDS011;37084;55.228;36.450;2023-07-20T19:18:18;4.95;;;1.88;;
51048;SDS011;37084;55.228;36.450;2023-07-20T19:24:26;4.38;;;2.35;;
51048;SDS011;37084;55.228;36.450;2023-07-20T19:27:29;3.03;;;2.08;;
51048;SDS011;37084;55.228;36.450;2023-07-20T19:30:38;2.60;;;1.88;;
51048;SDS011;37084;55.228;36.450;2023-07-20T19:33:39;5.35;;;2.22;;
51048;SDS011;37084;55.228;36.450;2023-07-20T19:36:41;4.10;;;1.70;;
51048;SDS011;37084;55.228;36.450;2023-07-20T19:39:47;4.85;;;2.30;;
51048;SDS011;37084;55.228;36.450;2023-07-20T19:42:54;3.03;;;1.77;;
51048;SDS011;37084;55.228;36.450;2023-07-20T19:45:56;4.57;;;2.42;;
51048;SDS011;37084;55.228;36.450;2023-07-20T19:48:57;3.28;;;2.13;;
51048;SDS011;37084;55.228;36.450;2023-07-20T19:52:00;5.40;;;2.22;;
51048;SDS011;37084;55.228;36.450;2023-07-20T19:55:02;5.10;;;2.13;;
51048;SDS011;37084;55.228;36.450;2023-07-20T19:58:08;4.80;;;2.00;;
51048;SDS011;37084;55.228;36.450;2023-07-20T20:01:10;3.85;;;2.20;;
51048;SDS011;37084;55.228;36.450;2023-07-20T20:04:11;4.28;;;2.00;;
51048;SDS011;37084;55.228;36.450;2023-07-20T20:07:14;3.25;;;2.03;;
51048;SDS011;37084;55.228;36.450;2023-07-20T20:10:17;3.65;;;1.98;;
51048;SDS011;37084;55.228;36.450;2023-07-20T20:13:22;3.72;;;1.95;;
51048;SDS011;37084;55.228;36.450;2023-07-20T20:16:25;4.28;;;2.45;;
51048;SDS011;37084;55.228;36.450;2023-07-20T20:19:27;2.90;;;2.00;;
51048;SDS011;37084;55.228;36.450;2023-07-20T20:22:31;4.20;;;2.10;;
51048;SDS011;37084;55.228;36.450;2023-07-20T20:25:34;3.97;;;2.15;;
51048;SDS011;37084;55.228;36.450;2023-07-20T20:28:35;8.52;;;2.20;;
51048;SDS011;37084;55.228;36.450;2023-07-20T20:31:39;3.42;;;2.33;;
51048;SDS011;37084;55.228;36.450;2023-07-20T20:34:45;3.20;;;2.00;;
51048;SDS011;37084;55.228;36.450;2023-07-20T20:37:46;2.90;;;1.70;;
51048;SDS011;37084;55.228;36.450;2023-07-20T20:40:55;4.25;;;2.03;;
51048;SDS011;37084;55.228;36.450;2023-07-20T20:43:59;5.22;;;2.13;;
51048;SDS011;37084;55.228;36.450;2023-07-20T20:47:01;4.88;;;1.90;;
51048;SDS011;37084;55.228;36.450;2023-07-20T20:50:04;5.10;;;2.20;;
51048;SDS011;37084;55.228;36.450;2023-07-20T20:53:10;2.42;;;1.88;;
51048;SDS011;37084;55.228;36.450;2023-07-20T20:56:14;4.82;;;1.95;;
51048;SDS011;37084;55.228;36.450;2023-07-20T20:59:19;3.47;;;1.55;;
51048;SDS011;37084;55.228;36.450;2023-07-20T21:02:24;6.40;;;1.80;;
51048;SDS011;37084;55.228;36.450;2023-07-20T21:05:27;3.72;;;1.70;;
51048;SDS011;37084;55.228;36.450;2023-07-20T21:08:28;5.70;;;2.05;;
51048;SDS011;37084;55.228;36.450;2023-07-20T21:11:30;4.85;;;1.70;;
51048;SDS011;37084;55.228;36.450;2023-07-20T21:14:34;3.58;;;2.28;;
51048;SDS011;37084;55.228;36.450;2023-07-20T21:17:43;4.00;;;1.90;;
51048;SDS011;37084;55.228;36.450;2023-07-20T21:20:48;6.55;;;2.00;;
51048;SDS011;37084;55.228;36.450;2023-07-20T21:23:50;3.55;;;1.77;;
51048;SDS011;37084;55.228;36.450;2023-07-20T21:26:51;2.60;;;1.85;;
51048;SDS011;37084;55.228;36.450;2023-07-20T21:29:53;4.53;;;2.22;;
51048;SDS011;37084;55.228;36.450;2023-07-20T21:32:54;2.42;;;1.77;;
51048;SDS011;37084;55.228;36.450;2023-07-20T21:35:58;2.92;;;1.73;;
51048;SDS011;37084;55.228;36.450;2023-07-20T21:39:01;4.22;;;1.80;;
51048;SDS011;37084;55.228;36.450;2023-07-20T21:42:04;3.63;;;1.65;;
51048;SDS011;37084;55.228;36.450;2023-07-20T21:45:06;5.20;;;2.28;;
51048;SDS011;37084;55.228;36.450;2023-07-20T21:48:09;2.22;;;1.73;;
51048;SDS011;37084;55.228;36.450;2023-07-20T21:51:11;4.18;;;1.67;;
51048;SDS011;37084;55.228;36.450;2023-07-20T21:54:13;4.63;;;1.80;;
51048;SDS011;37084;55.228;36.450;2023-07-20T21:57:15;3.17;;;2.05;;
51048;SDS011;37084;55.228;36.450;2023-07-20T22:00:17;4.63;;;1.83;;
51048;SDS011;37084;55.228;36.450;2023-07-20T22:03:20;3.10;;;1.80;;
51048;SDS011;37084;55.228;36.450;2023-07-20T22:06:22;5.57;;;1.88;;
51048;SDS011;37084;55.228;36.450;2023-07-20T22:09:23;3.85;;;1.90;;
51048;SDS011;37084;55.228;36.450;2023-07-20T22:12:26;2.72;;;1.73;;
51048;SDS011;37084;55.228;36.450;2023-07-20T22:15:27;4.18;;;1.42;;
51048;SDS011;37084;55.228;36.450;2023-07-20T22:18:29;2.67;;;2.08;;
51048;SDS011;37084;55.228;36.450;2023-07-20T22:21:30;3.33;;;2.05;;
51048;SDS011;37084;55.228;36.450;2023-07-20T22:24:32;4.80;;;2.08;;
51048;SDS011;37084;55.228;36.450;2023-07-20T22:27:35;5.43;;;2.20;;
51048;SDS011;37084;55.228;36.450;2023-07-20T22:30:37;4.63;;;1.77;;